ěÝzenÝ letovÚho provozu ╚eskÚ republiky
OPMET data - Ceska Republika Aktualizace: 28.03.2023 17:00:39  UTC
SIGMET / AIRMET - NIL
Warning / Vystraha - NIL
AIREP - NIL
REG QNH
REGIONAL QNH FORECAST ISSUED 2023-03-28 16:43 AREA VALID FM/TL QNH/HPA/ : LKAA 281700/281800 1019
 
METAR / SPECI
METAR LKBC NIL
METAR LKCS 281700Z AUTO 29008KT 260V320 9999 FEW053/// BKN064/// 04/M06 Q1024=
METAR LKCV 281700Z 32010KT CAVOK 04/M08 Q1023 NOSIG RMK BLU BLU=
METAR LKKB 281700Z 30008KT 270V330 CAVOK 05/M07 Q1023 NOSIG RMK BLU BLU=
SPECI LKKU 281627Z 32010G20KT 9999 VCSH FEW028 SCT040 04/M08 Q1022=
METAR LKKV 281700Z 27009KT 9999 FEW043 03/M06 Q1023=
METAR LKLN 281700Z AUTO 27005KT 240V330 9999 SCT064 05/M04 Q1025=
METAR LKMT 281700Z 29010KT 9999 FEW049 00/M04 Q1022 NOSIG=
METAR LKNA 281700Z 32014KT CAVOK 02/M10 Q1022 NOSIG RMK BLU BLU=
METAR LKPD 281700Z 32009KT 290V360 CAVOK 05/M09 Q1023 RMK BLACK=
METAR LKPJ 281700Z AUTO 31015KT CAVOK 03/M06 Q1022=
METAR LKPR 281700Z 30006KT CAVOK 04/M05 Q1023 NOSIG=
METAR LKTB 281700Z 31015KT CAVOK 04/M10 Q1022 NOSIG=
METAR LKVO NIL
TAF
TAF LKBC NIL
TAF LKCS NIL
TAF LKCV 281100Z 2812/2912 32016KT 9999 BKN040      TEMPO 2812/2816 31022G32KT 3000 SHSN BKN010 BKN020TCU      PROB30 TEMPO 2812/2814 32025KT 1500 SHSN BKN007 BKN020TCU      BECMG 2817/2820 14006KT CAVOK=
TAF LKKB 281100Z 2812/2912 29016KT 9999 SCT040      TEMPO 2812/2816 32018G28KT      PROB40 TEMPO 2812/2816 4000 SHSN SCT020 BKN035TCU      BECMG 2816/2818 20006KT CAVOK      BECMG 2908/2910 BKN035=
TAF LKKU NIL
TAF LKKV 281100Z 2812/2912 29013KT 9999 BKN025      TEMPO 2812/2816 30015G26KT 3000 -SHSN BKN007      BECMG 2816/2818 21004KT CAVOK      BECMG 2902/2904 9999 BKN018      TEMPO 2904/2912 4000 -SN BKN005=
TAF LKLN NIL
TAF LKMT 281100Z 2812/2912 32015KT 9999 BKN040      TEMPO 2812/2818 5000 -SHSN BKN015      PROB40 TEMPO 2812/2816 34020G30KT 1200 SHSN SCT005TCU BKN007      BECMG 2818/2820 21006KT 9999 SCT040=
TAF LKNA 281100Z 2812/2912 29016KT 9999 BKN035      TEMPO 2812/2817 31020G32KT 4000 SHSN SCT010 BKN023      PROB30 TEMPO 2812/2815 33028G38KT 2500 SHSN BKN008TCU      BECMG 2820/2822 33004KT CAVOK      BECMG 2904/2906 18005KT=
TAF LKPD NIL
TAF LKPJ NIL
TAF LKPR 281400Z 2815/2921 32014KT 9999 SCT035      TEMPO 2815/2816 32020G30KT 3000 -SHSN BKN012      BECMG 2818/2820 21006KT      BECMG 2908/2910 BKN025      BECMG 2918/2920 9999 SCT030=
TAF LKTB 281100Z 2812/2912 32015KT 9999 SCT040      TEMPO 2812/2818 32020G35KT 5000 -SHSN BKN015      PROB40 TEMPO 2812/2816 1200 SHSN SCT006TCU BKN008      BECMG 2818/2820 32004KT=
TAF LKVO NIL